Time;durP1;ratioP1;P1;durP2;ratioP2;P2;SDS_P1;SDS_P2;PMS_P1;PMS_P2;Temp;Humidity;BMP_temperature;BMP_pressure;BME280_temperature;BME280_humidity;BME280_pressure;Samples;Min_cycle;Max_cycle;Signal;HPM_P1;HPM_P2
2021/07/02 00:01:50;;;;;;;;;;;;;;;23.73;70.87;98924.44;5111845;28;19989;-39
2021/07/02 00:04:15;;;;;;;;;;;;;;;23.93;70.14;98915.00;5111749;28;19973;-39
2021/07/02 00:06:40;;;;;;;;;;;;;;;24.49;68.18;98918.09;5111733;28;19912;-38
2021/07/02 00:09:06;;;;;;;;;;;;;;;24.13;69.54;98915.56;5111683;28;19964;-37
2021/07/02 00:11:31;;;;;;;;;;;;;;;23.79;70.82;98915.06;5111779;28;20360;-38
2021/07/02 00:13:56;;;;;;;;;;;;;;;24.03;70.13;98903.06;5121177;27;19950;-38
2021/07/02 00:16:22;;;;;;;;;;;;;;;24.19;69.66;98903.44;5132252;27;19911;-38
2021/07/02 00:18:47;;;;;;;;;;;;;;;24.11;69.96;98899.56;5131785;27;19927;-38
2021/07/02 00:21:12;;;;;;;;;;;;;;;24.71;67.31;98900.09;5120107;27;19980;-38
2021/07/02 00:23:37;;;;;;;;;;;;;;;24.07;69.83;98895.09;5111791;28;19968;-38
2021/07/02 00:26:03;;;;;;;;;;;;;;;23.92;70.47;98894.38;5111203;28;20022;-38
2021/07/02 00:28:28;;;;;;;;;;;;;;;23.92;70.83;98899.81;5110995;28;20314;-38
2021/07/02 00:30:53;;;;;;;;;;;;;;;23.84;71.19;98905.19;5110893;28;19912;-38
2021/07/02 00:33:19;;;;;;;;;;;;;;;24.49;68.63;98909.94;5129986;27;19923;-38
2021/07/02 00:35:44;;;;;;;;;;;;;;;24.59;67.94;98906.94;5132016;28;19916;-38
2021/07/02 00:38:09;;;;;;;;;;;;;;;24.12;69.95;98905.81;5132200;28;19915;-38
2021/07/02 00:40:35;;;;;;;;;;;;;;;23.92;70.85;98910.69;5132021;27;19915;-39
2021/07/02 00:43:00;;;;;;;;;;;;;;;24.06;70.33;98904.34;5131873;28;19915;-39
2021/07/02 00:45:25;;;;;;;;;;;;;;;24.15;69.75;98905.97;5130495;28;20368;-38
2021/07/02 00:47:51;;;;;;;;;;;;;;;24.94;67.00;98900.75;5131723;28;19912;-39
2021/07/02 00:50:16;;;;;;;;;;;;;;;24.27;69.08;98901.88;5131682;28;19919;-39
2021/07/02 00:52:41;;;;;;;;;;;;;;;24.05;70.08;98900.84;5131752;28;19926;-39
2021/07/02 00:55:07;;;;;;;;;;;;;;;24.05;70.50;98903.56;5131503;28;19912;-39
2021/07/02 00:57:32;;;;;;;;;;;;;;;23.99;70.58;98905.59;5131745;28;19911;-39
2021/07/02 00:59:57;;;;;;;;;;;;;;;23.86;70.67;98905.72;5131642;27;19915;-38
2021/07/02 01:02:23;;;;;;;;;;;;;;;23.95;70.21;98903.81;5131614;28;19911;-38
2021/07/02 01:04:48;;;;;;;;;;;;;;;23.93;69.88;98909.59;5133821;27;20369;-39
2021/07/02 01:07:13;;;;;;;;;;;;;;;24.04;69.69;98910.09;5135639;27;19918;-39
2021/07/02 01:09:41;;;;;;;;;;;;;;;23.97;69.92;98907.84;5116689;27;19919;-38
2021/07/02 01:12:06;;;;;;;;;;;;;;;23.75;70.77;98903.22;5135487;27;19912;-38
2021/07/02 01:14:32;;;;;;;;;;;;;;;23.71;71.06;98909.59;5102244;28;19912;-38
2021/07/02 01:16:57;;;;;;;;;;;;;;;23.77;70.51;98902.91;5115229;28;20010;-38
2021/07/02 01:19:22;;;;;;;;;;;;;;;23.74;70.87;98904.34;5114720;28;19924;-39
2021/07/02 01:21:48;;;;;;;;;;;;;;;23.67;70.80;98900.47;5114745;28;19912;-39
2021/07/02 01:24:13;;;;;;;;;;;;;;;23.69;71.16;98899.03;5115156;28;19912;-39
2021/07/02 01:26:38;;;;;;;;;;;;;;;23.74;70.39;98900.81;5114682;28;19984;-38
2021/07/02 01:29:04;;;;;;;;;;;;;;;23.66;70.99;98901.56;5096635;28;20425;-38
2021/07/02 01:31:29;;;;;;;;;;;;;;;23.57;71.38;98898.78;5114504;28;19961;-37
2021/07/02 01:33:54;;;;;;;;;;;;;;;23.58;71.37;98901.19;5114282;28;19916;-38
2021/07/02 01:36:20;;;;;;;;;;;;;;;23.80;70.50;98902.31;5114692;28;20359;-38
2021/07/02 01:38:46;;;;;;;;;;;;;;;23.76;70.55;98901.28;5114371;28;19922;-38
2021/07/02 01:41:11;;;;;;;;;;;;;;;23.92;69.90;98897.09;5114329;28;19916;-38
2021/07/02 01:43:36;;;;;;;;;;;;;;;23.89;69.78;98897.72;5114037;28;19955;-38
2021/07/02 01:46:02;;;;;;;;;;;;;;;23.89;69.93;98905.06;5113889;28;19985;-37
2021/07/02 01:48:27;;;;;;;;;;;;;;;23.88;69.78;98904.28;5114396;28;19912;-38
2021/07/02 01:50:52;;;;;;;;;;;;;;;23.51;71.03;98908.97;5114389;28;19912;-38
2021/07/02 01:53:18;;;;;;;;;;;;;;;23.77;69.87;98905.63;5114218;28;19916;-38
2021/07/02 01:55:43;;;;;;;;;;;;;;;23.67;69.86;98897.75;5114265;28;19919;-39
2021/07/02 01:58:08;;;;;;;;;;;;;;;23.60;69.82;98903.59;5114204;28;19918;-38
2021/07/02 02:00:34;;;;;;;;;;;;;;;23.57;70.01;98899.59;5113939;28;19918;-38
2021/07/02 02:02:59;;;;;;;;;;;;;;;23.35;70.17;98905.84;5114193;28;19993;-38
2021/07/02 02:05:24;;;;;;;;;;;;;;;23.52;69.69;98918.72;5114060;28;19934;-37
2021/07/02 02:07:49;;;;;;;;;;;;;;;23.42;70.04;98921.69;5114194;28;19912;-38
2021/07/02 02:10:15;;;;;;;;;;;;;;;23.42;69.60;98919.78;5114039;28;19922;-38
2021/07/02 02:12:40;;;;;;;;;;;;;;;23.29;69.86;98926.06;5113676;28;19959;-39
2021/07/02 02:15:06;;;;;;;;;;;;;;;23.50;68.97;98928.31;5132963;27;20290;-38
2021/07/02 02:17:31;;;;;;;;;;;;;;;23.50;68.99;98931.00;5133490;27;19923;-38
2021/07/02 02:19:57;;;;;;;;;;;;;;;23.48;68.97;98925.09;5134289;27;19968;-38
2021/07/02 02:22:22;;;;;;;;;;;;;;;23.41;69.39;98936.38;5133127;27;19911;-38
2021/07/02 02:24:47;;;;;;;;;;;;;;;23.12;68.54;98925.94;5114894;27;19964;-37
2021/07/02 02:27:13;;;;;;;;;;;;;;;23.09;68.61;98926.53;5133792;27;19944;-38
2021/07/02 02:29:38;;;;;;;;;;;;;;;23.21;68.44;98927.59;5134041;27;20303;-37
2021/07/02 02:32:04;;;;;;;;;;;;;;;23.06;69.13;98921.75;5134030;27;19959;-39
2021/07/02 02:34:29;;;;;;;;;;;;;;;23.04;69.01;98916.63;5133707;27;19939;-38
2021/07/02 02:36:54;;;;;;;;;;;;;;;22.99;69.12;98919.41;5132512;27;19912;-38
2021/07/02 02:39:19;;;;;;;;;;;;;;;22.91;68.79;98920.94;5132389;27;19922;-38
2021/07/02 02:41:45;;;;;;;;;;;;;;;22.82;69.11;98923.53;5132618;27;19911;-38
2021/07/02 02:44:10;;;;;;;;;;;;;;;22.93;68.17;98945.03;5132611;27;19915;-38
2021/07/02 02:46:35;;;;;;;;;;;;;;;23.00;67.93;98940.00;5132812;27;20321;-38
2021/07/02 02:49:00;;;;;;;;;;;;;;;23.11;67.36;98943.31;5132714;27;19918;-38
2021/07/02 02:51:26;;;;;;;;;;;;;;;22.99;66.88;98946.53;5133432;27;19988;-38
2021/07/02 02:53:51;;;;;;;;;;;;;;;23.02;66.64;98952.16;5133702;27;19919;-39
2021/07/02 02:56:16;;;;;;;;;;;;;;;22.98;66.68;98953.88;5133814;27;19976;-38
2021/07/02 02:58:42;;;;;;;;;;;;;;;23.19;65.80;98950.75;5133681;27;19919;-38
2021/07/02 03:01:07;;;;;;;;;;;;;;;23.38;65.52;98953.25;5134079;27;20373;-39
2021/07/02 03:03:32;;;;;;;;;;;;;;;23.37;65.18;98954.38;5133809;27;19971;-38
2021/07/02 03:05:57;;;;;;;;;;;;;;;23.33;65.42;98961.53;5132647;27;19911;-38
2021/07/02 03:08:23;;;;;;;;;;;;;;;23.44;65.23;98962.91;5133714;27;20006;-40
2021/07/02 03:10:48;;;;;;;;;;;;;;;23.27;65.29;98966.28;5133551;27;20371;-37
2021/07/02 03:13:13;;;;;;;;;;;;;;;23.38;64.76;98955.97;5133235;27;19915;-38
2021/07/02 03:15:39;;;;;;;;;;;;;;;23.11;64.92;98963.09;5133660;27;19975;-37
2021/07/02 03:18:04;;;;;;;;;;;;;;;23.47;63.85;98966.91;5133382;27;19923;-37
2021/07/02 03:20:29;;;;;;;;;;;;;;;23.21;64.17;98962.09;5127143;27;19980;-37
2021/07/02 03:22:54;;;;;;;;;;;;;;;23.14;63.31;98967.13;5112972;28;19919;-38
2021/07/02 03:25:20;;;;;;;;;;;;;;;23.43;62.49;98969.44;5112749;28;20332;-38
2021/07/02 03:27:45;;;;;;;;;;;;;;;23.50;62.44;98975.25;5112893;28;19949;-38
2021/07/02 03:30:11;;;;;;;;;;;;;;;23.50;61.42;98974.47;5112683;28;19912;-38
2021/07/02 03:32:36;;;;;;;;;;;;;;;23.68;61.14;98978.88;5112592;28;19920;-38
2021/07/02 03:35:02;;;;;;;;;;;;;;;23.70;60.56;98973.16;5112838;28;20006;-38
2021/07/02 03:37:27;;;;;;;;;;;;;;;23.65;60.88;98976.00;5112344;28;19998;-38
2021/07/02 03:39:52;;;;;;;;;;;;;;;23.65;60.82;98978.72;5112988;28;19912;-38
2021/07/02 03:42:18;;;;;;;;;;;;;;;23.73;59.93;98989.63;5112423;28;20014;-38
2021/07/02 03:44:43;;;;;;;;;;;;;;;24.06;59.89;98986.66;5112300;28;19919;-37
2021/07/02 03:47:08;;;;;;;;;;;;;;;24.13;59.52;98987.03;5112165;28;19915;-38
2021/07/02 03:49:34;;;;;;;;;;;;;;;24.45;58.60;98985.09;5112328;28;19912;-37
2021/07/02 03:51:59;;;;;;;;;;;;;;;24.77;57.98;98992.13;5112129;28;19923;-39
2021/07/02 03:54:24;;;;;;;;;;;;;;;24.89;57.02;98986.06;5112409;28;19966;-39
2021/07/02 03:59:33;;;;;;;;;;;;;;;25.31;55.75;98980.22;5112323;28;20387;-37
2021/07/02 04:01:59;;;;;;;;;;;;;;;25.69;54.61;98977.63;5112096;28;19911;-38
2021/07/02 04:04:24;;;;;;;;;;;;;;;25.73;54.44;98975.88;5111955;28;20025;-37
2021/07/02 04:06:49;;;;;;;;;;;;;;;25.98;53.35;98978.91;5112108;28;19977;-38
2021/07/02 04:09:14;;;;;;;;;;;;;;;26.13;52.71;98983.03;5112057;28;19912;-38
2021/07/02 04:11:40;;;;;;;;;;;;;;;26.38;52.72;98977.81;5112117;28;19915;-38
2021/07/02 04:14:05;;;;;;;;;;;;;;;26.34;52.42;98983.13;5111733;28;19916;-38
2021/07/02 04:16:31;;;;;;;;;;;;;;;26.56;52.04;98981.25;5111313;28;19930;-38
2021/07/02 04:18:56;;;;;;;;;;;;;;;26.40;52.71;98989.19;5111303;28;19927;-38
2021/07/02 04:21:21;;;;;;;;;;;;;;;26.77;51.80;98990.34;5111523;28;19912;-39
2021/07/02 04:23:46;;;;;;;;;;;;;;;27.10;50.87;98992.38;5111558;28;19918;-38
2021/07/02 04:26:12;;;;;;;;;;;;;;;27.40;49.61;98997.81;5111777;28;19912;-37
2021/07/02 04:28:37;;;;;;;;;;;;;;;27.64;49.22;98997.13;5111439;28;20335;-38
2021/07/02 04:31:02;;;;;;;;;;;;;;;27.99;48.59;98999.56;5111609;28;19911;-38
2021/07/02 04:33:27;;;;;;;;;;;;;;;28.38;47.52;99009.09;5111118;28;20404;-38
2021/07/02 04:35:53;;;;;;;;;;;;;;;28.70;46.61;99006.63;5110848;28;19919;-38
2021/07/02 04:38:18;;;;;;;;;;;;;;;28.66;46.41;99006.50;5111305;28;19971;-39
2021/07/02 04:40:43;;;;;;;;;;;;;;;28.96;46.44;99010.94;5117755;28;19919;-38
2021/07/02 04:43:09;;;;;;;;;;;;;;;29.42;45.04;99017.06;5100727;28;20542;-38
2021/07/02 04:45:34;;;;;;;;;;;;;;;29.55;44.77;99009.56;5097328;28;20015;-38
2021/07/02 04:47:59;;;;;;;;;;;;;;;29.80;43.93;99018.53;5097488;28;19989;-39
2021/07/02 04:50:24;;;;;;;;;;;;;;;29.72;44.23;99028.50;5097337;28;19962;-38
2021/07/02 04:52:50;;;;;;;;;;;;;;;29.49;44.66;99028.19;5097324;28;19939;-38
2021/07/02 04:55:15;;;;;;;;;;;;;;;29.75;43.22;99027.81;5096407;28;20352;-39
2021/07/02 04:57:40;;;;;;;;;;;;;;;30.08;43.60;99023.19;5096981;28;20014;-39
2021/07/02 05:00:06;;;;;;;;;;;;;;;30.82;41.63;99028.97;5097267;28;19963;-39
2021/07/02 05:02:31;;;;;;;;;;;;;;;29.89;43.09;99026.59;5078859;28;19935;-38
2021/07/02 05:04:56;;;;;;;;;;;;;;;30.29;41.92;99021.03;5097364;28;19923;-38
2021/07/02 05:07:22;;;;;;;;;;;;;;;30.55;41.75;99027.94;5096653;28;19920;-38
2021/07/02 05:09:47;;;;;;;;;;;;;;;30.49;41.65;99024.69;5095570;28;20271;-38
2021/07/02 05:12:13;;;;;;;;;;;;;;;30.71;41.15;99028.75;5117163;28;19916;-38
2021/07/02 05:14:38;;;;;;;;;;;;;;;31.71;39.69;99038.44;5116906;27;20060;-39
2021/07/02 05:17:05;;;;;;;;;;;;;;;30.45;40.80;99039.47;5125535;27;19915;-39
2021/07/02 05:19:30;;;;;;;;;;;;;;;30.10;41.82;99042.84;5137771;27;19966;-38
2021/07/02 05:21:55;;;;;;;;;;;;;;;30.77;41.04;99051.25;5119264;27;19958;-39
2021/07/02 05:24:22;;;;;;;;;;;;;;;31.29;39.49;99052.84;5116693;28;20239;-38
2021/07/02 05:26:48;;;;;;;;;;;;;;;31.95;39.28;99048.34;5117372;28;20401;-38
2021/07/02 05:29:13;;;;;;;;;;;;;;;32.10;38.29;99043.13;5117105;28;19916;-38
2021/07/02 05:31:38;;;;;;;;;;;;;;;31.93;38.66;99047.13;5116616;28;19915;-38
2021/07/02 05:34:03;;;;;;;;;;;;;;;31.33;38.75;99050.19;5117027;28;19965;-37
2021/07/02 05:36:29;;;;;;;;;;;;;;;31.50;39.25;99049.00;5098610;28;19916;-39
2021/07/02 05:38:54;;;;;;;;;;;;;;;32.31;37.64;99046.28;5117106;28;19968;-39
2021/07/02 05:41:19;;;;;;;;;;;;;;;32.30;37.79;99046.63;5117039;27;19912;-38
2021/07/02 05:43:45;;;;;;;;;;;;;;;32.72;37.42;99046.56;5116123;27;20264;-38
2021/07/02 05:46:12;;;;;;;;;;;;;;;32.62;37.13;99052.72;5116109;27;20324;-39
2021/07/02 05:48:37;;;;;;;;;;;;;;;32.34;36.82;99051.03;5115087;27;19915;-39
2021/07/02 05:51:02;;;;;;;;;;;;;;;32.89;35.89;99045.28;5111284;27;20053;-38
2021/07/02 05:53:28;;;;;;;;;;;;;;;33.15;35.19;99046.47;5112577;28;19923;-39
2021/07/02 05:55:53;;;;;;;;;;;;;;;33.40;35.78;99052.31;5112950;28;20369;-40
2021/07/02 05:58:18;;;;;;;;;;;;;;;33.73;35.58;99056.28;5112361;28;20285;-39
2021/07/02 06:00:43;;;;;;;;;;;;;;;33.88;34.64;99058.06;5112819;28;19961;-38
2021/07/02 06:03:09;;;;;;;;;;;;;;;33.06;35.05;99063.25;5112459;28;20002;-38
2021/07/02 06:05:34;;;;;;;;;;;;;;;33.27;35.34;99068.28;5112611;28;19969;-39
2021/07/02 06:08:00;;;;;;;;;;;;;;;32.98;35.54;99063.53;5112448;28;20398;-39
2021/07/02 06:10:26;;;;;;;;;;;;;;;33.04;35.29;99065.56;5112572;28;19919;-39
2021/07/02 06:12:51;;;;;;;;;;;;;;;33.70;34.59;99073.63;5112334;28;19973;-38
2021/07/02 06:15:17;;;;;;;;;;;;;;;33.30;35.14;99078.59;5112257;28;19919;-38
2021/07/02 06:17:42;;;;;;;;;;;;;;;33.11;35.43;99076.72;5125848;27;19987;-38
2021/07/02 06:20:08;;;;;;;;;;;;;;;32.89;35.74;99083.06;5129366;27;19916;-37
2021/07/02 06:22:34;;;;;;;;;;;;;;;33.47;35.41;99081.94;5112736;28;19923;-38
2021/07/02 06:24:59;;;;;;;;;;;;;;;32.91;36.30;99075.22;5113400;28;19912;-41
2021/07/02 06:27:24;;;;;;;;;;;;;;;32.44;36.85;99084.63;5112711;28;20488;-40
2021/07/02 06:29:49;;;;;;;;;;;;;;;32.46;37.50;99080.38;5112750;28;19911;-57
2021/07/02 06:32:15;;;;;;;;;;;;;;;32.75;36.52;99082.81;5123063;27;19911;-52
2021/07/02 06:34:40;;;;;;;;;;;;;;;33.36;35.54;99090.09;5133109;27;19922;-56
2021/07/02 06:37:06;;;;;;;;;;;;;;;33.18;36.16;99081.53;5133593;27;19912;-52
2021/07/02 06:39:31;;;;;;;;;;;;;;;33.27;36.13;99078.53;5133250;27;19911;-55
2021/07/02 06:41:56;;;;;;;;;;;;;;;32.98;36.71;99080.03;5132867;27;20279;-50
2021/07/02 06:44:21;;;;;;;;;;;;;;;33.17;36.15;99079.16;5130885;27;19911;-51
2021/07/02 06:46:47;;;;;;;;;;;;;;;32.47;37.29;99075.63;5109791;28;20299;-51
2021/07/02 06:49:13;;;;;;;;;;;;;;;32.52;37.03;99073.38;5100289;28;19916;-52
2021/07/02 06:51:38;;;;;;;;;;;;;;;33.02;36.09;99072.63;5102737;28;20262;-49
2021/07/02 06:54:03;;;;;;;;;;;;;;;33.57;35.62;99067.50;5112239;28;19923;-50
2021/07/02 06:56:29;;;;;;;;;;;;;;;34.19;35.06;99077.34;5112276;28;19969;-50
2021/07/02 06:58:54;;;;;;;;;;;;;;;34.13;34.36;99053.97;5112036;28;19911;-50
2021/07/02 07:01:20;;;;;;;;;;;;;;;34.09;34.64;99070.50;5102884;28;19912;-49
2021/07/02 07:03:45;;;;;;;;;;;;;;;34.59;33.77;99067.44;5111529;28;19918;-52
2021/07/02 07:06:10;;;;;;;;;;;;;;;34.28;34.24;99067.56;5111919;28;19918;-51
2021/07/02 07:08:36;;;;;;;;;;;;;;;33.89;34.20;99069.88;5111721;28;20043;-51
2021/07/02 07:11:01;;;;;;;;;;;;;;;33.93;34.75;99069.91;5112037;28;19912;-49
2021/07/02 07:13:26;;;;;;;;;;;;;;;34.30;34.30;99071.94;5111676;28;19919;-53
2021/07/02 07:15:52;;;;;;;;;;;;;;;34.04;34.25;99066.13;5111939;28;19984;-50
2021/07/02 07:18:17;;;;;;;;;;;;;;;33.73;34.43;99061.81;5130549;27;19931;-50
2021/07/02 07:20:43;;;;;;;;;;;;;;;33.97;34.13;99063.28;5124233;27;19912;-52
2021/07/02 07:23:08;;;;;;;;;;;;;;;34.08;34.37;99071.66;5111704;28;19957;-51
2021/07/02 07:25:33;;;;;;;;;;;;;;;34.33;33.54;99055.41;5111805;28;19995;-51
2021/07/02 07:27:58;;;;;;;;;;;;;;;34.16;33.25;99056.81;5111693;28;20044;-51
2021/07/02 07:30:24;;;;;;;;;;;;;;;34.73;32.97;99064.03;5111043;28;19912;-51
2021/07/02 07:32:52;;;;;;;;;;;;;;;34.15;33.84;99065.44;5111141;28;20372;-47
2021/07/02 07:37:55;;;;;;;;;;;;;;;34.99;32.14;99069.34;5111300;28;19916;-52
2021/07/02 07:40:21;;;;;;;;;;;;;;;34.94;32.19;99063.38;5111018;28;19916;-51
2021/07/02 07:42:46;;;;;;;;;;;;;;;35.27;32.13;99061.66;5111177;28;20080;-52
2021/07/02 07:45:12;;;;;;;;;;;;;;;35.42;31.68;99061.34;5111287;28;20300;-52
2021/07/02 07:47:37;;;;;;;;;;;;;;;35.23;32.55;99070.72;5114010;27;19916;-52
2021/07/02 07:50:08;;;;;;;;;;;;;;;34.30;32.72;99071.94;5120403;27;19915;-51
2021/07/02 07:52:45;;;;;;;;;;;;;;;34.69;32.38;99071.50;5120186;27;19912;-38
2021/07/02 07:55:10;;;;;;;;;;;;;;;34.98;32.02;99075.28;5080406;28;19916;-39
2021/07/02 07:57:35;;;;;;;;;;;;;;;35.20;31.83;99071.50;5104657;28;19912;-40
2021/07/02 08:00:01;;;;;;;;;;;;;;;35.28;31.03;99066.81;5108513;28;19919;-39
2021/07/02 08:02:26;;;;;;;;;;;;;;;34.90;31.53;99076.41;5092913;28;19915;-39
2021/07/02 08:04:51;;;;;;;;;;;;;;;34.94;31.48;99077.22;5115995;27;19920;-40
2021/07/02 08:07:17;;;;;;;;;;;;;;;35.10;31.16;99066.66;5115294;27;19919;-40
2021/07/02 08:09:43;;;;;;;;;;;;;;;34.94;31.34;99064.22;5119952;27;19912;-39
2021/07/02 08:12:08;;;;;;;;;;;;;;;34.52;32.09;99061.84;5122392;27;19927;-41
2021/07/02 08:14:33;;;;;;;;;;;;;;;34.40;32.22;99060.19;5111301;27;19916;-40
2021/07/02 08:16:59;;;;;;;;;;;;;;;35.00;31.00;99061.88;5119564;27;19938;-40
2021/07/02 08:19:24;;;;;;;;;;;;;;;35.23;31.02;99056.13;5131796;27;20300;-40
2021/07/02 08:21:49;;;;;;;;;;;;;;;34.64;31.95;99053.28;5114536;27;19951;-39
2021/07/02 08:24:15;;;;;;;;;;;;;;;34.76;31.22;99053.00;5111468;28;19934;-41
2021/07/02 08:26:41;;;;;;;;;;;;;;;35.51;30.84;99043.59;5111499;28;19960;-40
2021/07/02 08:31:50;;;;;;;;;;;;;;;35.96;29.16;99044.19;5111042;28;20331;-39
2021/07/02 08:34:16;;;;;;;;;;;;;;;35.80;29.93;99050.06;5111269;28;19916;-42
2021/07/02 08:36:41;;;;;;;;;;;;;;;35.62;29.68;99053.53;5111219;28;20002;-40
2021/07/02 08:39:06;;;;;;;;;;;;;;;35.40;29.97;99040.81;5103553;28;20018;-40
2021/07/02 08:41:32;;;;;;;;;;;;;;;35.22;30.54;99038.75;5100566;28;19916;-40
2021/07/02 08:43:57;;;;;;;;;;;;;;;35.46;30.31;99032.94;5071910;28;19916;-40
2021/07/02 08:46:23;;;;;;;;;;;;;;;36.01;29.20;99035.50;5072006;28;19912;-40
2021/07/02 08:48:48;;;;;;;;;;;;;;;35.93;29.28;99039.41;5072779;28;19973;-40
2021/07/02 08:51:14;;;;;;;;;;;;;;;35.67;29.93;99038.53;5090639;28;19912;-38
2021/07/02 08:53:39;;;;;;;;;;;;;;;35.72;30.79;99034.63;5089867;28;19924;-40
2021/07/02 08:56:05;;;;;;;;;;;;;;;35.11;30.39;99037.88;5089985;28;20348;-40
2021/07/02 08:58:30;;;;;;;;;;;;;;;35.16;30.39;99036.69;5088807;28;20002;-41
2021/07/02 09:00:55;;;;;;;;;;;;;;;35.44;30.02;99045.16;5088524;28;19912;-38
2021/07/02 09:03:30;;;;;;;;;;;;;;;35.65;30.30;99038.13;5089809;28;19963;-38
2021/07/02 09:05:56;;;;;;;;;;;;;;;35.64;29.65;99036.53;5089485;28;19915;-39
2021/07/02 09:08:22;;;;;;;;;;;;;;;35.97;28.99;99038.25;5090113;28;19912;-45
2021/07/02 09:10:47;;;;;;;;;;;;;;;36.20;28.71;99040.69;5090246;28;19919;-42
2021/07/02 09:13:13;;;;;;;;;;;;;;;36.33;29.19;99037.56;5107826;28;20382;-39
2021/07/02 09:15:45;;;;;;;;;;;;;;;36.49;28.51;99032.41;5110492;28;19916;-40
2021/07/02 09:18:12;;;;;;;;;;;;;;;36.31;28.92;99018.56;5110213;28;19924;-40
2021/07/02 09:20:39;;;;;;;;;;;;;;;36.03;29.29;99022.06;5110093;28;20380;-41
2021/07/02 09:23:05;;;;;;;;;;;;;;;35.75;30.40;99026.31;5110512;28;19916;-40
2021/07/02 09:25:30;;;;;;;;;;;;;;;35.75;30.27;99026.31;5111430;28;19918;-40
2021/07/02 09:27:59;;;;;;;;;;;;;;;36.67;28.96;99017.78;5114450;28;20002;-40
2021/07/02 09:30:28;;;;;;;;;;;;;;;37.19;28.19;99015.34;5096145;28;20298;-41
2021/07/02 09:32:55;;;;;;;;;;;;;;;37.15;28.71;99011.78;5114279;28;20283;-39
2021/07/02 09:35:22;;;;;;;;;;;;;;;36.16;30.20;99012.19;5113934;28;20401;-39
2021/07/02 09:37:56;;;;;;;;;;;;;;;35.95;30.30;99012.94;5113994;28;19923;-42
2021/07/02 09:40:22;;;;;;;;;;;;;;;35.95;30.14;99014.94;5114181;28;20006;-40
2021/07/02 09:42:48;;;;;;;;;;;;;;;37.02;29.14;99003.06;5113955;28;19926;-41
2021/07/02 09:45:14;;;;;;;;;;;;;;;37.05;28.12;98998.69;5095965;28;20310;-40
2021/07/02 09:47:40;;;;;;;;;;;;;;;37.13;29.25;99000.28;5114209;28;19911;-39
2021/07/02 09:50:15;;;;;;;;;;;;;;;37.14;28.02;98990.78;5114340;28;19911;-39
2021/07/02 09:52:47;;;;;;;;;;;;;;;36.75;29.05;98986.13;5113959;28;19980;-41
2021/07/02 09:55:13;;;;;;;;;;;;;;;36.33;29.50;98988.50;5114173;28;19912;-40
2021/07/02 09:57:39;;;;;;;;;;;;;;;36.79;29.11;98984.91;5114051;28;20026;-39
2021/07/02 10:00:05;;;;;;;;;;;;;;;36.87;28.18;98980.13;5113881;28;20208;-40
2021/07/02 10:02:30;;;;;;;;;;;;;;;36.97;27.65;98981.28;5113900;28;20009;-40
2021/07/02 10:04:59;;;;;;;;;;;;;;;37.45;27.13;98979.94;5113812;28;19912;-39
2021/07/02 10:07:25;;;;;;;;;;;;;;;36.81;27.86;98980.97;5113870;28;19940;-41
2021/07/02 10:09:50;;;;;;;;;;;;;;;37.58;27.31;98981.06;5113920;28;19918;-41
2021/07/02 10:12:16;;;;;;;;;;;;;;;37.12;28.04;98979.28;5113010;28;20361;-40
2021/07/02 10:14:41;;;;;;;;;;;;;;;37.26;26.93;98970.13;5094818;28;20299;-41
2021/07/02 10:17:06;;;;;;;;;;;;;;;37.15;28.30;98972.97;5095460;28;19922;-41
2021/07/02 10:19:31;;;;;;;;;;;;;;;37.43;28.12;98985.13;5091399;28;20383;-41
2021/07/02 10:21:57;;;;;;;;;;;;;;;37.15;27.93;98962.66;5092892;28;20014;-40
2021/07/02 10:24:22;;;;;;;;;;;;;;;36.10;29.27;98969.47;5091558;28;20351;-40
2021/07/02 10:26:47;;;;;;;;;;;;;;;36.56;28.81;98968.69;5093066;28;19989;-41
2021/07/02 10:29:12;;;;;;;;;;;;;;;36.60;28.98;98966.69;5074772;28;19912;-41
2021/07/02 10:31:38;;;;;;;;;;;;;;;36.03;29.19;98969.47;5092779;28;19912;-41
2021/07/02 10:34:03;;;;;;;;;;;;;;;36.33;28.63;98968.31;5091375;28;20037;-41
2021/07/02 10:36:32;;;;;;;;;;;;;;;36.65;28.29;98967.47;5092433;28;19916;-40
2021/07/02 10:38:57;;;;;;;;;;;;;;;36.40;28.80;98968.31;5092348;28;20017;-42
2021/07/02 10:41:25;;;;;;;;;;;;;;;37.44;28.29;98965.31;5092720;28;20046;-41
2021/07/02 10:44:12;;;;;;;;;;;;;;;37.31;28.37;98966.94;5092732;28;19912;-42
2021/07/02 10:46:46;;;;;;;;;;;;;;;36.74;28.05;98960.38;5092008;28;20391;-40
2021/07/02 10:49:12;;;;;;;;;;;;;;;37.35;28.17;98956.63;5092480;28;20363;-41
2021/07/02 10:51:47;;;;;;;;;;;;;;;37.02;28.65;98960.72;5092030;28;19916;-41
2021/07/02 10:54:15;;;;;;;;;;;;;;;36.59;28.38;98956.81;5092167;28;20001;-41
2021/07/02 10:56:49;;;;;;;;;;;;;;;35.89;28.49;98937.03;5091720;28;19961;-40
2021/07/02 10:59:15;;;;;;;;;;;;;;;36.41;28.48;98931.13;5092075;28;19919;-40
2021/07/02 11:01:59;;;;;;;;;;;;;;;36.32;27.97;98936.28;5092182;28;19916;-40
2021/07/02 11:04:32;;;;;;;;;;;;;;;36.91;27.95;98921.94;5092088;28;19919;-40
2021/07/02 11:06:57;;;;;;;;;;;;;;;37.23;27.62;98926.59;5092185;28;19954;-40
2021/07/02 11:09:42;;;;;;;;;;;;;;;37.65;26.13;98922.00;5091574;28;19959;-39
2021/07/02 11:12:08;;;;;;;;;;;;;;;37.01;26.73;98921.09;5092126;28;19950;-39
2021/07/02 11:14:34;;;;;;;;;;;;;;;36.54;26.94;98923.97;5091731;28;19923;-39
2021/07/02 11:17:19;;;;;;;;;;;;;;;36.77;27.19;98923.56;5092147;28;19916;-39
2021/07/02 11:19:44;;;;;;;;;;;;;;;36.80;26.34;98924.72;5091941;28;19931;-40
2021/07/02 11:22:25;;;;;;;;;;;;;;;36.86;26.18;98916.78;5091535;28;19912;-41
2021/07/02 11:25:01;;;;;;;;;;;;;;;37.23;26.39;98926.59;5091651;28;19918;-42
2021/07/02 11:27:47;;;;;;;;;;;;;;;36.33;26.27;98913.72;5091892;28;20050;-41
2021/07/02 11:30:18;;;;;;;;;;;;;;;36.53;26.39;98919.59;5091479;28;19922;-41
2021/07/02 11:32:44;;;;;;;;;;;;;;;35.70;27.19;98916.06;5091304;28;19935;-40
2021/07/02 11:35:19;;;;;;;;;;;;;;;36.63;26.74;98920.78;5091178;28;19912;-42
2021/07/02 11:38:11;;;;;;;;;;;;;;;36.30;25.90;98920.03;5091389;28;20000;-40
2021/07/02 11:40:39;;;;;;;;;;;;;;;36.50;25.73;98912.13;5089105;28;20003;-38
2021/07/02 11:43:08;;;;;;;;;;;;;;;36.73;25.68;98902.59;5091055;28;19916;-40
2021/07/02 11:45:49;;;;;;;;;;;;;;;36.85;25.58;98913.22;5091404;28;19916;-41
2021/07/02 11:48:23;;;;;;;;;;;;;;;36.54;26.45;98921.19;5091109;28;20002;-40
2021/07/02 11:50:58;;;;;;;;;;;;;;;36.75;24.66;98914.06;5091093;28;19927;-41
2021/07/02 11:53:33;;;;;;;;;;;;;;;36.18;26.13;98926.00;5091027;28;20397;-41
2021/07/02 11:56:05;;;;;;;;;;;;;;;36.20;25.79;98929.16;5091101;28;19916;-40
2021/07/02 11:58:31;;;;;;;;;;;;;;;36.77;25.31;98917.22;5090947;28;20003;-41
2021/07/02 12:00:57;;;;;;;;;;;;;;;35.68;26.23;98936.97;5090882;28;20337;-40
2021/07/02 12:03:22;;;;;;;;;;;;;;;35.33;25.81;98928.19;5090768;28;20405;-40
2021/07/02 12:06:06;;;;;;;;;;;;;;;35.27;26.13;98929.75;5091125;28;19972;-42
2021/07/02 12:08:31;;;;;;;;;;;;;;;34.88;26.53;98930.34;5090850;28;19961;-39
2021/07/02 12:10:58;;;;;;;;;;;;;;;34.96;26.01;98928.41;5091557;28;20353;-39
2021/07/02 12:13:23;;;;;;;;;;;;;;;35.36;25.07;98924.66;5110998;28;19916;-41
2021/07/02 12:16:01;;;;;;;;;;;;;;;34.83;25.67;98914.91;5111398;28;19912;-39
2021/07/02 12:18:27;;;;;;;;;;;;;;;34.92;25.51;98914.56;5121212;27;19954;-41
2021/07/02 12:21:08;;;;;;;;;;;;;;;34.74;26.16;98917.22;5121846;27;19990;-40
2021/07/02 12:23:37;;;;;;;;;;;;;;;35.29;25.18;98916.31;5111170;28;19912;-39
2021/07/02 12:26:29;;;;;;;;;;;;;;;34.86;26.26;98916.09;5092258;28;19912;-40
2021/07/02 12:28:56;;;;;;;;;;;;;;;34.06;26.71;98924.97;5106435;28;20200;-39
2021/07/02 12:31:22;;;;;;;;;;;;;;;34.83;26.77;98912.16;5110560;28;19912;-40
2021/07/02 12:33:47;;;;;;;;;;;;;;;34.89;25.94;98906.25;5110286;28;19924;-39
2021/07/02 12:36:13;;;;;;;;;;;;;;;34.83;26.52;98914.91;5110368;28;20371;-39
2021/07/02 12:38:56;;;;;;;;;;;;;;;34.44;26.53;98915.47;5110491;28;19912;-40
2021/07/02 12:41:22;;;;;;;;;;;;;;;34.73;26.55;98917.63;5110201;28;20002;-39
2021/07/02 12:43:47;;;;;;;;;;;;;;;34.59;26.40;98921.06;5092299;28;19962;-38
2021/07/02 12:46:12;;;;;;;;;;;;;;;34.41;26.90;98924.50;5110790;28;19960;-38
2021/07/02 12:48:37;;;;;;;;;;;;;;;33.04;28.88;98930.56;5092151;28;20347;-39
2021/07/02 12:51:03;;;;;;;;;;;;;;;33.92;28.26;98924.88;5110328;28;19911;-40
2021/07/02 12:56:12;;;;;;;;;;;;;;;33.88;28.39;98925.63;5110264;28;19972;-39